sensor_id;sensor_type;location;lat;lon;timestamp;P1;durP1;ratioP1;P2;durP2;ratioP2
12812;SDS011;6471;50.932;6.934;2023-05-16T00:00:27;5.17;;;3.03;;
12812;SDS011;6471;50.932;6.934;2023-05-16T00:02:58;3.10;;;2.63;;
12812;SDS011;6471;50.932;6.934;2023-05-16T00:05:25;4.23;;;2.70;;
12812;SDS011;6471;50.932;6.934;2023-05-16T00:07:51;4.97;;;3.07;;
12812;SDS011;6471;50.932;6.934;2023-05-16T00:10:17;4.73;;;3.40;;
12812;SDS011;6471;50.932;6.934;2023-05-16T00:12:43;3.90;;;2.87;;
12812;SDS011;6471;50.932;6.934;2023-05-16T00:15:10;3.87;;;2.80;;
12812;SDS011;6471;50.932;6.934;2023-05-16T00:17:38;6.43;;;3.63;;
12812;SDS011;6471;50.932;6.934;2023-05-16T00:20:05;6.40;;;3.30;;
12812;SDS011;6471;50.932;6.934;2023-05-16T00:22:41;7.70;;;3.80;;
12812;SDS011;6471;50.932;6.934;2023-05-16T00:25:07;5.07;;;3.50;;
12812;SDS011;6471;50.932;6.934;2023-05-16T00:27:33;5.63;;;3.80;;
12812;SDS011;6471;50.932;6.934;2023-05-16T00:30:00;5.50;;;3.90;;
12812;SDS011;6471;50.932;6.934;2023-05-16T00:32:26;7.77;;;4.47;;
12812;SDS011;6471;50.932;6.934;2023-05-16T00:34:53;4.77;;;4.00;;
12812;SDS011;6471;50.932;6.934;2023-05-16T00:37:19;7.03;;;3.93;;
12812;SDS011;6471;50.932;6.934;2023-05-16T00:39:45;7.43;;;4.03;;
12812;SDS011;6471;50.932;6.934;2023-05-16T00:42:11;7.27;;;4.20;;
12812;SDS011;6471;50.932;6.934;2023-05-16T00:44:37;5.43;;;4.00;;
12812;SDS011;6471;50.932;6.934;2023-05-16T00:47:03;6.00;;;4.00;;
12812;SDS011;6471;50.932;6.934;2023-05-16T00:49:29;6.17;;;4.07;;
12812;SDS011;6471;50.932;6.934;2023-05-16T00:51:56;5.73;;;4.10;;
12812;SDS011;6471;50.932;6.934;2023-05-16T00:54:23;5.43;;;3.73;;
12812;SDS011;6471;50.932;6.934;2023-05-16T00:56:53;5.67;;;5.00;;
12812;SDS011;6471;50.932;6.934;2023-05-16T00:59:20;9.33;;;7.50;;
12812;SDS011;6471;50.932;6.934;2023-05-16T01:01:46;9.97;;;7.17;;
12812;SDS011;6471;50.932;6.934;2023-05-16T01:04:12;12.93;;;9.30;;
12812;SDS011;6471;50.932;6.934;2023-05-16T01:06:38;12.87;;;9.10;;
12812;SDS011;6471;50.932;6.934;2023-05-16T01:09:05;13.53;;;10.40;;
12812;SDS011;6471;50.932;6.934;2023-05-16T01:11:38;12.57;;;9.37;;
12812;SDS011;6471;50.932;6.934;2023-05-16T01:20:00;12.00;;;9.57;;
12812;SDS011;6471;50.932;6.934;2023-05-16T01:23:16;14.07;;;9.93;;
12812;SDS011;6471;50.932;6.934;2023-05-16T01:28:00;10.20;;;7.70;;
12812;SDS011;6471;50.932;6.934;2023-05-16T01:30:30;9.10;;;7.00;;
12812;SDS011;6471;50.932;6.934;2023-05-16T01:32:57;8.03;;;6.27;;
12812;SDS011;6471;50.932;6.934;2023-05-16T01:35:23;8.17;;;5.97;;
12812;SDS011;6471;50.932;6.934;2023-05-16T01:37:57;8.57;;;6.23;;
12812;SDS011;6471;50.932;6.934;2023-05-16T01:42:59;14.77;;;10.90;;
12812;SDS011;6471;50.932;6.934;2023-05-16T01:45:31;15.23;;;10.67;;
12812;SDS011;6471;50.932;6.934;2023-05-16T01:47:59;15.27;;;11.53;;
12812;SDS011;6471;50.932;6.934;2023-05-16T01:50:26;17.50;;;13.03;;
12812;SDS011;6471;50.932;6.934;2023-05-16T01:52:58;19.97;;;13.57;;
12812;SDS011;6471;50.932;6.934;2023-05-16T01:58:10;18.93;;;13.73;;
12812;SDS011;6471;50.932;6.934;2023-05-16T02:00:37;18.07;;;12.03;;
12812;SDS011;6471;50.932;6.934;2023-05-16T02:03:04;15.40;;;11.23;;
12812;SDS011;6471;50.932;6.934;2023-05-16T02:05:30;15.57;;;11.27;;
12812;SDS011;6471;50.932;6.934;2023-05-16T02:07:57;17.40;;;12.37;;
12812;SDS011;6471;50.932;6.934;2023-05-16T02:10:23;19.03;;;12.77;;
12812;SDS011;6471;50.932;6.934;2023-05-16T02:12:49;17.70;;;11.97;;
12812;SDS011;6471;50.932;6.934;2023-05-16T02:15:16;14.10;;;10.27;;
12812;SDS011;6471;50.932;6.934;2023-05-16T02:17:42;14.97;;;9.80;;
12812;SDS011;6471;50.932;6.934;2023-05-16T02:20:08;13.00;;;9.20;;
12812;SDS011;6471;50.932;6.934;2023-05-16T02:22:35;14.07;;;10.00;;
12812;SDS011;6471;50.932;6.934;2023-05-16T02:25:03;12.67;;;8.97;;
12812;SDS011;6471;50.932;6.934;2023-05-16T02:27:29;12.27;;;9.00;;
12812;SDS011;6471;50.932;6.934;2023-05-16T02:29:55;11.33;;;8.30;;
12812;SDS011;6471;50.932;6.934;2023-05-16T02:32:21;10.37;;;6.60;;
12812;SDS011;6471;50.932;6.934;2023-05-16T02:34:47;8.70;;;5.97;;
12812;SDS011;6471;50.932;6.934;2023-05-16T02:37:13;10.13;;;5.57;;
12812;SDS011;6471;50.932;6.934;2023-05-16T02:39:40;8.00;;;5.40;;
12812;SDS011;6471;50.932;6.934;2023-05-16T02:42:06;8.60;;;4.70;;
12812;SDS011;6471;50.932;6.934;2023-05-16T02:44:32;9.73;;;5.07;;
12812;SDS011;6471;50.932;6.934;2023-05-16T02:46:58;8.23;;;4.70;;
12812;SDS011;6471;50.932;6.934;2023-05-16T02:49:24;5.60;;;4.10;;
12812;SDS011;6471;50.932;6.934;2023-05-16T02:51:50;10.10;;;4.03;;
12812;SDS011;6471;50.932;6.934;2023-05-16T02:54:17;9.93;;;3.77;;
12812;SDS011;6471;50.932;6.934;2023-05-16T02:56:43;8.50;;;3.73;;
12812;SDS011;6471;50.932;6.934;2023-05-16T02:59:09;6.00;;;3.60;;
12812;SDS011;6471;50.932;6.934;2023-05-16T03:01:35;9.13;;;4.07;;
12812;SDS011;6471;50.932;6.934;2023-05-16T03:04:02;8.10;;;4.40;;
12812;SDS011;6471;50.932;6.934;2023-05-16T03:06:28;10.17;;;4.90;;
12812;SDS011;6471;50.932;6.934;2023-05-16T03:08:54;11.27;;;5.57;;
12812;SDS011;6471;50.932;6.934;2023-05-16T03:11:20;13.07;;;6.50;;
12812;SDS011;6471;50.932;6.934;2023-05-16T03:13:48;11.70;;;6.27;;
12812;SDS011;6471;50.932;6.934;2023-05-16T03:16:14;9.47;;;6.70;;
12812;SDS011;6471;50.932;6.934;2023-05-16T03:18:40;13.20;;;7.40;;
12812;SDS011;6471;50.932;6.934;2023-05-16T03:21:06;12.50;;;7.40;;
12812;SDS011;6471;50.932;6.934;2023-05-16T03:23:32;10.67;;;6.93;;
12812;SDS011;6471;50.932;6.934;2023-05-16T03:25:58;15.50;;;7.87;;
12812;SDS011;6471;50.932;6.934;2023-05-16T03:28:25;9.73;;;6.87;;
12812;SDS011;6471;50.932;6.934;2023-05-16T03:30:51;12.97;;;7.57;;
12812;SDS011;6471;50.932;6.934;2023-05-16T03:33:17;11.97;;;7.13;;
12812;SDS011;6471;50.932;6.934;2023-05-16T03:35:44;10.20;;;6.50;;
12812;SDS011;6471;50.932;6.934;2023-05-16T03:38:10;14.87;;;7.70;;
12812;SDS011;6471;50.932;6.934;2023-05-16T03:40:36;14.93;;;8.33;;
12812;SDS011;6471;50.932;6.934;2023-05-16T03:43:02;14.40;;;8.00;;
12812;SDS011;6471;50.932;6.934;2023-05-16T03:45:29;17.27;;;7.77;;
12812;SDS011;6471;50.932;6.934;2023-05-16T03:47:55;15.63;;;7.70;;
12812;SDS011;6471;50.932;6.934;2023-05-16T03:50:22;10.03;;;6.77;;
12812;SDS011;6471;50.932;6.934;2023-05-16T03:52:48;12.00;;;6.37;;
12812;SDS011;6471;50.932;6.934;2023-05-16T03:55:14;12.40;;;7.50;;
12812;SDS011;6471;50.932;6.934;2023-05-16T03:57:40;17.37;;;7.43;;
12812;SDS011;6471;50.932;6.934;2023-05-16T04:00:07;11.40;;;6.90;;
12812;SDS011;6471;50.932;6.934;2023-05-16T04:02:35;13.13;;;7.17;;
12812;SDS011;6471;50.932;6.934;2023-05-16T04:05:01;14.93;;;6.97;;
12812;SDS011;6471;50.932;6.934;2023-05-16T04:07:27;15.30;;;7.37;;
12812;SDS011;6471;50.932;6.934;2023-05-16T04:09:53;16.13;;;6.43;;
12812;SDS011;6471;50.932;6.934;2023-05-16T04:12:22;16.47;;;6.80;;
12812;SDS011;6471;50.932;6.934;2023-05-16T04:14:48;15.40;;;6.40;;
12812;SDS011;6471;50.932;6.934;2023-05-16T04:17:14;12.83;;;6.63;;
12812;SDS011;6471;50.932;6.934;2023-05-16T04:19:40;12.77;;;6.57;;
12812;SDS011;6471;50.932;6.934;2023-05-16T04:22:06;13.43;;;6.60;;
12812;SDS011;6471;50.932;6.934;2023-05-16T04:24:32;14.63;;;6.33;;
12812;SDS011;6471;50.932;6.934;2023-05-16T04:26:59;15.13;;;7.50;;
12812;SDS011;6471;50.932;6.934;2023-05-16T04:29:25;17.13;;;7.70;;
12812;SDS011;6471;50.932;6.934;2023-05-16T04:31:51;15.10;;;7.33;;
12812;SDS011;6471;50.932;6.934;2023-05-16T04:34:17;12.50;;;6.30;;
12812;SDS011;6471;50.932;6.934;2023-05-16T04:36:43;14.53;;;6.03;;
12812;SDS011;6471;50.932;6.934;2023-05-16T04:39:09;7.57;;;4.80;;
12812;SDS011;6471;50.932;6.934;2023-05-16T04:41:36;11.57;;;5.77;;
12812;SDS011;6471;50.932;6.934;2023-05-16T04:44:02;13.97;;;5.47;;
12812;SDS011;6471;50.932;6.934;2023-05-16T04:46:29;12.57;;;4.60;;
12812;SDS011;6471;50.932;6.934;2023-05-16T04:48:55;13.27;;;5.20;;
12812;SDS011;6471;50.932;6.934;2023-05-16T04:51:21;11.70;;;4.50;;
12812;SDS011;6471;50.932;6.934;2023-05-16T04:53:47;14.10;;;3.70;;
12812;SDS011;6471;50.932;6.934;2023-05-16T04:56:13;9.20;;;3.70;;
12812;SDS011;6471;50.932;6.934;2023-05-16T04:58:39;13.77;;;3.70;;
12812;SDS011;6471;50.932;6.934;2023-05-16T05:01:05;11.00;;;3.33;;
12812;SDS011;6471;50.932;6.934;2023-05-16T05:03:31;9.83;;;2.93;;
12812;SDS011;6471;50.932;6.934;2023-05-16T05:05:58;9.73;;;2.60;;
12812;SDS011;6471;50.932;6.934;2023-05-16T05:08:24;8.80;;;2.63;;
12812;SDS011;6471;50.932;6.934;2023-05-16T05:10:50;8.63;;;2.57;;
12812;SDS011;6471;50.932;6.934;2023-05-16T05:13:16;9.77;;;2.53;;
12812;SDS011;6471;50.932;6.934;2023-05-16T05:15:42;8.03;;;2.30;;
12812;SDS011;6471;50.932;6.934;2023-05-16T05:18:08;7.70;;;2.33;;
12812;SDS011;6471;50.932;6.934;2023-05-16T05:20:34;10.50;;;2.87;;
12812;SDS011;6471;50.932;6.934;2023-05-16T05:23:00;8.27;;;2.50;;
12812;SDS011;6471;50.932;6.934;2023-05-16T05:25:26;8.47;;;2.73;;
12812;SDS011;6471;50.932;6.934;2023-05-16T05:27:53;9.93;;;2.70;;
12812;SDS011;6471;50.932;6.934;2023-05-16T05:30:19;7.97;;;2.70;;
12812;SDS011;6471;50.932;6.934;2023-05-16T05:32:45;7.13;;;2.20;;
12812;SDS011;6471;50.932;6.934;2023-05-16T05:35:11;8.27;;;2.50;;
12812;SDS011;6471;50.932;6.934;2023-05-16T05:37:37;7.70;;;2.47;;
12812;SDS011;6471;50.932;6.934;2023-05-16T05:40:03;8.43;;;2.73;;
12812;SDS011;6471;50.932;6.934;2023-05-16T05:42:29;10.00;;;2.90;;
12812;SDS011;6471;50.932;6.934;2023-05-16T05:44:55;11.47;;;2.73;;
12812;SDS011;6471;50.932;6.934;2023-05-16T05:47:21;9.30;;;2.43;;
12812;SDS011;6471;50.932;6.934;2023-05-16T05:49:47;10.47;;;2.73;;
12812;SDS011;6471;50.932;6.934;2023-05-16T05:52:14;9.30;;;2.70;;
12812;SDS011;6471;50.932;6.934;2023-05-16T05:54:40;8.50;;;2.67;;
12812;SDS011;6471;50.932;6.934;2023-05-16T05:57:06;8.20;;;1.90;;
12812;SDS011;6471;50.932;6.934;2023-05-16T05:59:32;9.87;;;2.77;;
12812;SDS011;6471;50.932;6.934;2023-05-16T06:01:58;11.50;;;2.47;;
12812;SDS011;6471;50.932;6.934;2023-05-16T06:04:24;8.73;;;2.40;;
12812;SDS011;6471;50.932;6.934;2023-05-16T06:06:50;5.97;;;1.90;;
12812;SDS011;6471;50.932;6.934;2023-05-16T06:09:16;7.73;;;2.10;;
12812;SDS011;6471;50.932;6.934;2023-05-16T06:11:42;8.67;;;2.30;;
12812;SDS011;6471;50.932;6.934;2023-05-16T06:14:10;8.30;;;2.50;;
12812;SDS011;6471;50.932;6.934;2023-05-16T06:16:36;4.50;;;1.57;;
12812;SDS011;6471;50.932;6.934;2023-05-16T06:19:04;6.23;;;1.80;;
12812;SDS011;6471;50.932;6.934;2023-05-16T06:21:30;6.60;;;2.10;;
12812;SDS011;6471;50.932;6.934;2023-05-16T06:23:57;9.87;;;2.23;;
12812;SDS011;6471;50.932;6.934;2023-05-16T06:26:23;6.07;;;1.93;;
12812;SDS011;6471;50.932;6.934;2023-05-16T06:28:49;12.47;;;2.30;;
12812;SDS011;6471;50.932;6.934;2023-05-16T06:31:15;10.73;;;2.30;;
12812;SDS011;6471;50.932;6.934;2023-05-16T06:33:41;7.70;;;2.10;;
12812;SDS011;6471;50.932;6.934;2023-05-16T06:36:07;8.03;;;2.10;;
12812;SDS011;6471;50.932;6.934;2023-05-16T06:38:36;6.37;;;2.10;;
12812;SDS011;6471;50.932;6.934;2023-05-16T06:41:03;3.43;;;1.80;;
12812;SDS011;6471;50.932;6.934;2023-05-16T06:43:29;8.07;;;1.80;;
12812;SDS011;6471;50.932;6.934;2023-05-16T06:45:55;12.57;;;2.17;;
12812;SDS011;6471;50.932;6.934;2023-05-16T06:48:21;5.13;;;1.63;;
12812;SDS011;6471;50.932;6.934;2023-05-16T06:50:48;4.77;;;1.63;;
12812;SDS011;6471;50.932;6.934;2023-05-16T06:53:16;8.17;;;1.90;;
12812;SDS011;6471;50.932;6.934;2023-05-16T06:55:42;4.37;;;1.70;;
12812;SDS011;6471;50.932;6.934;2023-05-16T06:58:08;4.23;;;1.83;;
12812;SDS011;6471;50.932;6.934;2023-05-16T07:00:34;4.20;;;1.60;;
12812;SDS011;6471;50.932;6.934;2023-05-16T07:03:01;6.57;;;2.10;;
12812;SDS011;6471;50.932;6.934;2023-05-16T07:05:27;4.47;;;1.73;;
12812;SDS011;6471;50.932;6.934;2023-05-16T07:07:53;4.93;;;1.37;;
12812;SDS011;6471;50.932;6.934;2023-05-16T07:10:20;6.67;;;2.00;;
12812;SDS011;6471;50.932;6.934;2023-05-16T07:12:46;8.50;;;2.10;;
12812;SDS011;6471;50.932;6.934;2023-05-16T07:15:12;6.23;;;1.80;;
12812;SDS011;6471;50.932;6.934;2023-05-16T07:17:38;9.77;;;2.00;;
12812;SDS011;6471;50.932;6.934;2023-05-16T07:20:05;4.63;;;2.00;;
12812;SDS011;6471;50.932;6.934;2023-05-16T07:22:32;8.03;;;2.20;;
12812;SDS011;6471;50.932;6.934;2023-05-16T07:24:58;5.70;;;1.67;;
12812;SDS011;6471;50.932;6.934;2023-05-16T07:27:25;3.90;;;1.63;;
12812;SDS011;6471;50.932;6.934;2023-05-16T07:29:51;6.07;;;2.17;;
12812;SDS011;6471;50.932;6.934;2023-05-16T07:32:18;7.67;;;1.80;;
12812;SDS011;6471;50.932;6.934;2023-05-16T07:34:44;5.20;;;1.83;;
12812;SDS011;6471;50.932;6.934;2023-05-16T07:37:10;4.93;;;1.77;;
12812;SDS011;6471;50.932;6.934;2023-05-16T07:39:40;4.50;;;1.53;;
12812;SDS011;6471;50.932;6.934;2023-05-16T07:42:06;5.47;;;1.70;;
12812;SDS011;6471;50.932;6.934;2023-05-16T07:44:33;5.30;;;2.00;;
12812;SDS011;6471;50.932;6.934;2023-05-16T07:46:59;6.63;;;1.57;;
12812;SDS011;6471;50.932;6.934;2023-05-16T07:49:25;3.67;;;1.50;;
12812;SDS011;6471;50.932;6.934;2023-05-16T07:51:52;4.33;;;1.60;;
12812;SDS011;6471;50.932;6.934;2023-05-16T07:54:18;4.57;;;1.67;;
12812;SDS011;6471;50.932;6.934;2023-05-16T07:56:44;4.93;;;1.77;;
12812;SDS011;6471;50.932;6.934;2023-05-16T07:59:10;5.07;;;1.53;;
12812;SDS011;6471;50.932;6.934;2023-05-16T08:01:36;3.83;;;1.53;;
12812;SDS011;6471;50.932;6.934;2023-05-16T08:04:02;6.60;;;2.17;;
12812;SDS011;6471;50.932;6.934;2023-05-16T08:06:28;5.50;;;2.27;;
12812;SDS011;6471;50.932;6.934;2023-05-16T08:08:59;6.97;;;2.50;;
12812;SDS011;6471;50.932;6.934;2023-05-16T08:11:25;6.20;;;2.40;;
12812;SDS011;6471;50.932;6.934;2023-05-16T08:13:51;4.93;;;2.10;;
12812;SDS011;6471;50.932;6.934;2023-05-16T08:16:17;5.93;;;2.80;;
12812;SDS011;6471;50.932;6.934;2023-05-16T08:18:44;8.17;;;3.10;;
12812;SDS011;6471;50.932;6.934;2023-05-16T08:21:10;6.30;;;2.90;;
12812;SDS011;6471;50.932;6.934;2023-05-16T08:23:38;7.23;;;2.30;;
12812;SDS011;6471;50.932;6.934;2023-05-16T08:26:04;5.97;;;2.33;;
12812;SDS011;6471;50.932;6.934;2023-05-16T08:28:30;5.87;;;2.40;;
12812;SDS011;6471;50.932;6.934;2023-05-16T08:30:56;5.50;;;2.70;;
12812;SDS011;6471;50.932;6.934;2023-05-16T08:33:22;5.20;;;2.60;;
12812;SDS011;6471;50.932;6.934;2023-05-16T08:35:49;5.17;;;2.27;;
12812;SDS011;6471;50.932;6.934;2023-05-16T08:38:17;7.83;;;2.50;;
12812;SDS011;6471;50.932;6.934;2023-05-16T08:40:43;4.97;;;2.40;;
12812;SDS011;6471;50.932;6.934;2023-05-16T08:43:09;5.90;;;2.50;;
12812;SDS011;6471;50.932;6.934;2023-05-16T08:45:35;4.90;;;2.07;;
12812;SDS011;6471;50.932;6.934;2023-05-16T08:48:02;6.57;;;2.17;;
12812;SDS011;6471;50.932;6.934;2023-05-16T08:50:30;5.70;;;2.20;;
12812;SDS011;6471;50.932;6.934;2023-05-16T08:52:56;6.33;;;2.37;;
12812;SDS011;6471;50.932;6.934;2023-05-16T08:55:23;5.57;;;2.20;;
12812;SDS011;6471;50.932;6.934;2023-05-16T08:57:49;4.53;;;1.80;;
12812;SDS011;6471;50.932;6.934;2023-05-16T09:00:16;7.23;;;2.47;;
12812;SDS011;6471;50.932;6.934;2023-05-16T09:02:43;5.63;;;2.03;;
12812;SDS011;6471;50.932;6.934;2023-05-16T09:05:10;5.07;;;2.00;;
12812;SDS011;6471;50.932;6.934;2023-05-16T09:07:36;4.60;;;1.97;;
12812;SDS011;6471;50.932;6.934;2023-05-16T09:10:02;4.87;;;2.10;;
12812;SDS011;6471;50.932;6.934;2023-05-16T09:12:30;3.17;;;1.50;;
12812;SDS011;6471;50.932;6.934;2023-05-16T09:14:56;4.10;;;2.00;;
12812;SDS011;6471;50.932;6.934;2023-05-16T09:17:23;3.53;;;1.60;;
12812;SDS011;6471;50.932;6.934;2023-05-16T09:19:49;4.23;;;1.83;;
12812;SDS011;6471;50.932;6.934;2023-05-16T09:22:17;5.33;;;1.97;;
12812;SDS011;6471;50.932;6.934;2023-05-16T09:24:43;5.87;;;2.40;;
12812;SDS011;6471;50.932;6.934;2023-05-16T09:27:10;9.47;;;2.23;;
12812;SDS011;6471;50.932;6.934;2023-05-16T09:29:39;4.93;;;2.10;;
12812;SDS011;6471;50.932;6.934;2023-05-16T09:32:09;4.97;;;2.13;;
12812;SDS011;6471;50.932;6.934;2023-05-16T09:34:42;4.40;;;1.97;;
12812;SDS011;6471;50.932;6.934;2023-05-16T09:37:09;3.53;;;1.80;;
12812;SDS011;6471;50.932;6.934;2023-05-16T09:39:37;5.17;;;1.57;;
12812;SDS011;6471;50.932;6.934;2023-05-16T09:42:04;6.47;;;1.63;;
12812;SDS011;6471;50.932;6.934;2023-05-16T09:44:30;4.27;;;1.70;;
12812;SDS011;6471;50.932;6.934;2023-05-16T09:46:56;3.83;;;1.70;;
12812;SDS011;6471;50.932;6.934;2023-05-16T09:49:22;4.23;;;1.80;;
12812;SDS011;6471;50.932;6.934;2023-05-16T09:51:49;3.10;;;1.40;;
12812;SDS011;6471;50.932;6.934;2023-05-16T09:54:16;6.47;;;2.17;;
12812;SDS011;6471;50.932;6.934;2023-05-16T09:56:53;3.43;;;1.80;;
12812;SDS011;6471;50.932;6.934;2023-05-16T09:59:20;5.20;;;1.70;;
12812;SDS011;6471;50.932;6.934;2023-05-16T10:01:46;3.73;;;1.63;;
12812;SDS011;6471;50.932;6.934;2023-05-16T10:04:13;7.87;;;1.80;;
12812;SDS011;6471;50.932;6.934;2023-05-16T10:06:40;3.63;;;2.00;;
12812;SDS011;6471;50.932;6.934;2023-05-16T10:09:10;5.10;;;1.90;;
12812;SDS011;6471;50.932;6.934;2023-05-16T10:11:40;4.40;;;1.60;;
12812;SDS011;6471;50.932;6.934;2023-05-16T10:14:06;3.13;;;1.70;;
12812;SDS011;6471;50.932;6.934;2023-05-16T10:16:34;4.23;;;1.63;;
12812;SDS011;6471;50.932;6.934;2023-05-16T10:19:01;4.37;;;1.60;;
12812;SDS011;6471;50.932;6.934;2023-05-16T10:21:29;3.10;;;1.47;;
12812;SDS011;6471;50.932;6.934;2023-05-16T10:23:58;2.93;;;1.60;;
12812;SDS011;6471;50.932;6.934;2023-05-16T10:26:26;4.90;;;1.60;;
12812;SDS011;6471;50.932;6.934;2023-05-16T10:28:53;5.17;;;1.90;;
12812;SDS011;6471;50.932;6.934;2023-05-16T10:31:20;4.07;;;1.60;;
12812;SDS011;6471;50.932;6.934;2023-05-16T10:33:46;3.53;;;1.50;;
12812;SDS011;6471;50.932;6.934;2023-05-16T10:36:12;2.67;;;1.70;;
12812;SDS011;6471;50.932;6.934;2023-05-16T10:38:39;5.70;;;1.70;;
12812;SDS011;6471;50.932;6.934;2023-05-16T10:41:06;4.33;;;1.70;;
12812;SDS011;6471;50.932;6.934;2023-05-16T10:43:33;3.03;;;1.67;;
12812;SDS011;6471;50.932;6.934;2023-05-16T10:46:09;3.47;;;1.60;;
12812;SDS011;6471;50.932;6.934;2023-05-16T10:48:36;6.00;;;2.00;;
12812;SDS011;6471;50.932;6.934;2023-05-16T10:51:03;3.10;;;1.80;;
12812;SDS011;6471;50.932;6.934;2023-05-16T10:53:31;3.87;;;1.33;;
12812;SDS011;6471;50.932;6.934;2023-05-16T10:58:24;5.97;;;1.97;;
12812;SDS011;6471;50.932;6.934;2023-05-16T11:11:55;2.67;;;1.50;;
12812;SDS011;6471;50.932;6.934;2023-05-16T11:14:56;3.73;;;1.77;;
12812;SDS011;6471;50.932;6.934;2023-05-16T11:17:22;5.97;;;1.40;;
12812;SDS011;6471;50.932;6.934;2023-05-16T11:19:56;3.27;;;1.60;;
12812;SDS011;6471;50.932;6.934;2023-05-16T11:22:26;4.17;;;1.60;;
12812;SDS011;6471;50.932;6.934;2023-05-16T11:27:29;6.57;;;1.70;;
12812;SDS011;6471;50.932;6.934;2023-05-16T11:32:34;3.40;;;1.73;;
12812;SDS011;6471;50.932;6.934;2023-05-16T11:35:01;5.83;;;1.80;;
12812;SDS011;6471;50.932;6.934;2023-05-16T11:37:27;4.63;;;1.70;;
12812;SDS011;6471;50.932;6.934;2023-05-16T11:39:57;3.73;;;1.50;;
12812;SDS011;6471;50.932;6.934;2023-05-16T11:42:24;3.20;;;1.93;;
12812;SDS011;6471;50.932;6.934;2023-05-16T11:44:50;5.80;;;2.00;;
12812;SDS011;6471;50.932;6.934;2023-05-16T11:47:28;3.50;;;1.60;;
12812;SDS011;6471;50.932;6.934;2023-05-16T11:49:59;3.03;;;1.43;;
12812;SDS011;6471;50.932;6.934;2023-05-16T11:52:25;4.63;;;1.80;;
12812;SDS011;6471;50.932;6.934;2023-05-16T11:54:52;6.00;;;1.60;;
12812;SDS011;6471;50.932;6.934;2023-05-16T11:57:19;1.60;;;1.37;;
12812;SDS011;6471;50.932;6.934;2023-05-16T11:59:45;5.23;;;1.40;;
12812;SDS011;6471;50.932;6.934;2023-05-16T12:02:11;5.90;;;1.60;;
12812;SDS011;6471;50.932;6.934;2023-05-16T12:04:37;3.60;;;1.30;;
12812;SDS011;6471;50.932;6.934;2023-05-16T12:07:03;4.37;;;1.70;;
12812;SDS011;6471;50.932;6.934;2023-05-16T12:09:29;6.03;;;1.87;;
12812;SDS011;6471;50.932;6.934;2023-05-16T12:11:55;3.70;;;1.93;;
12812;SDS011;6471;50.932;6.934;2023-05-16T12:14:22;5.77;;;1.60;;
12812;SDS011;6471;50.932;6.934;2023-05-16T12:16:49;5.00;;;1.90;;
12812;SDS011;6471;50.932;6.934;2023-05-16T12:19:16;3.97;;;1.50;;
12812;SDS011;6471;50.932;6.934;2023-05-16T12:21:42;5.00;;;1.30;;
12812;SDS011;6471;50.932;6.934;2023-05-16T12:24:09;4.43;;;1.47;;
12812;SDS011;6471;50.932;6.934;2023-05-16T12:26:38;4.10;;;1.37;;
12812;SDS011;6471;50.932;6.934;2023-05-16T12:29:04;2.43;;;1.47;;
12812;SDS011;6471;50.932;6.934;2023-05-16T12:31:34;2.23;;;1.30;;
12812;SDS011;6471;50.932;6.934;2023-05-16T12:34:04;3.43;;;1.10;;
12812;SDS011;6471;50.932;6.934;2023-05-16T12:36:31;2.23;;;1.00;;
12812;SDS011;6471;50.932;6.934;2023-05-16T12:38:59;1.57;;;1.10;;
12812;SDS011;6471;50.932;6.934;2023-05-16T12:41:27;2.07;;;1.23;;
12812;SDS011;6471;50.932;6.934;2023-05-16T12:44:05;2.50;;;1.30;;
12812;SDS011;6471;50.932;6.934;2023-05-16T12:46:31;3.67;;;1.20;;
12812;SDS011;6471;50.932;6.934;2023-05-16T12:49:01;2.93;;;1.10;;
12812;SDS011;6471;50.932;6.934;2023-05-16T12:51:29;3.33;;;1.20;;
12812;SDS011;6471;50.932;6.934;2023-05-16T12:53:56;2.93;;;1.20;;
12812;SDS011;6471;50.932;6.934;2023-05-16T12:56:22;3.37;;;1.17;;
12812;SDS011;6471;50.932;6.934;2023-05-16T12:58:49;3.27;;;1.20;;
12812;SDS011;6471;50.932;6.934;2023-05-16T13:01:16;4.90;;;1.60;;
12812;SDS011;6471;50.932;6.934;2023-05-16T13:03:42;2.47;;;1.40;;
12812;SDS011;6471;50.932;6.934;2023-05-16T13:06:08;3.60;;;1.17;;
12812;SDS011;6471;50.932;6.934;2023-05-16T13:08:34;1.83;;;1.10;;
12812;SDS011;6471;50.932;6.934;2023-05-16T13:11:00;3.57;;;1.30;;
12812;SDS011;6471;50.932;6.934;2023-05-16T13:13:27;2.43;;;1.10;;
12812;SDS011;6471;50.932;6.934;2023-05-16T13:15:53;3.67;;;1.43;;
12812;SDS011;6471;50.932;6.934;2023-05-16T13:18:19;2.43;;;1.40;;
12812;SDS011;6471;50.932;6.934;2023-05-16T13:20:45;4.27;;;1.40;;
12812;SDS011;6471;50.932;6.934;2023-05-16T13:23:11;2.27;;;1.20;;
12812;SDS011;6471;50.932;6.934;2023-05-16T13:25:37;2.20;;;1.20;;
12812;SDS011;6471;50.932;6.934;2023-05-16T13:28:03;2.93;;;1.27;;
12812;SDS011;6471;50.932;6.934;2023-05-16T13:30:29;2.70;;;1.20;;
12812;SDS011;6471;50.932;6.934;2023-05-16T13:32:56;1.30;;;1.00;;
12812;SDS011;6471;50.932;6.934;2023-05-16T13:35:22;2.73;;;1.20;;
12812;SDS011;6471;50.932;6.934;2023-05-16T13:37:58;3.17;;;1.00;;
12812;SDS011;6471;50.932;6.934;2023-05-16T13:40:24;1.73;;;0.93;;
12812;SDS011;6471;50.932;6.934;2023-05-16T13:42:51;4.30;;;1.37;;
12812;SDS011;6471;50.932;6.934;2023-05-16T13:45:17;1.60;;;1.03;;
12812;SDS011;6471;50.932;6.934;2023-05-16T13:47:43;3.30;;;1.47;;
12812;SDS011;6471;50.932;6.934;2023-05-16T13:50:10;2.50;;;1.13;;
12812;SDS011;6471;50.932;6.934;2023-05-16T13:52:36;2.00;;;1.10;;
12812;SDS011;6471;50.932;6.934;2023-05-16T13:55:03;1.90;;;0.93;;
12812;SDS011;6471;50.932;6.934;2023-05-16T13:57:29;3.33;;;1.30;;
12812;SDS011;6471;50.932;6.934;2023-05-16T13:59:56;4.00;;;1.33;;
12812;SDS011;6471;50.932;6.934;2023-05-16T14:02:24;3.07;;;1.20;;
12812;SDS011;6471;50.932;6.934;2023-05-16T14:04:50;2.50;;;1.00;;
12812;SDS011;6471;50.932;6.934;2023-05-16T14:07:17;2.33;;;1.17;;
12812;SDS011;6471;50.932;6.934;2023-05-16T14:09:43;2.87;;;1.27;;
12812;SDS011;6471;50.932;6.934;2023-05-16T14:12:09;2.90;;;1.10;;
12812;SDS011;6471;50.932;6.934;2023-05-16T14:14:36;4.37;;;1.43;;
12812;SDS011;6471;50.932;6.934;2023-05-16T14:17:02;3.90;;;1.13;;
12812;SDS011;6471;50.932;6.934;2023-05-16T14:19:28;1.63;;;1.00;;
12812;SDS011;6471;50.932;6.934;2023-05-16T14:21:55;3.00;;;1.30;;
12812;SDS011;6471;50.932;6.934;2023-05-16T14:24:21;2.23;;;1.10;;
12812;SDS011;6471;50.932;6.934;2023-05-16T14:26:47;3.07;;;1.20;;
12812;SDS011;6471;50.932;6.934;2023-05-16T14:29:13;3.20;;;1.10;;
12812;SDS011;6471;50.932;6.934;2023-05-16T14:31:39;2.30;;;1.10;;
12812;SDS011;6471;50.932;6.934;2023-05-16T14:34:05;1.77;;;1.07;;
12812;SDS011;6471;50.932;6.934;2023-05-16T14:36:31;4.57;;;1.40;;
12812;SDS011;6471;50.932;6.934;2023-05-16T14:38:57;1.50;;;1.10;;
12812;SDS011;6471;50.932;6.934;2023-05-16T14:41:24;2.83;;;1.20;;
12812;SDS011;6471;50.932;6.934;2023-05-16T14:43:50;3.63;;;1.33;;
12812;SDS011;6471;50.932;6.934;2023-05-16T14:46:16;2.63;;;1.10;;
12812;SDS011;6471;50.932;6.934;2023-05-16T14:48:42;3.23;;;1.23;;
12812;SDS011;6471;50.932;6.934;2023-05-16T14:51:08;2.67;;;1.17;;
12812;SDS011;6471;50.932;6.934;2023-05-16T14:53:35;2.60;;;1.37;;
12812;SDS011;6471;50.932;6.934;2023-05-16T14:56:01;3.47;;;1.60;;
12812;SDS011;6471;50.932;6.934;2023-05-16T14:58:27;3.60;;;1.53;;
12812;SDS011;6471;50.932;6.934;2023-05-16T15:00:53;3.03;;;1.77;;
12812;SDS011;6471;50.932;6.934;2023-05-16T15:03:19;4.37;;;1.70;;
12812;SDS011;6471;50.932;6.934;2023-05-16T15:05:45;2.63;;;1.63;;
12812;SDS011;6471;50.932;6.934;2023-05-16T17:22:17;2.73;;;1.50;;
12812;SDS011;6471;50.932;6.934;2023-05-16T17:24:45;4.43;;;1.70;;
12812;SDS011;6471;50.932;6.934;2023-05-16T17:27:11;3.20;;;1.67;;
12812;SDS011;6471;50.932;6.934;2023-05-16T17:29:37;4.63;;;1.77;;
12812;SDS011;6471;50.932;6.934;2023-05-16T17:32:04;3.43;;;1.60;;
12812;SDS011;6471;50.932;6.934;2023-05-16T17:34:30;2.67;;;1.77;;
12812;SDS011;6471;50.932;6.934;2023-05-16T17:36:57;4.93;;;2.00;;
12812;SDS011;6471;50.932;6.934;2023-05-16T17:39:23;2.37;;;1.63;;
12812;SDS011;6471;50.932;6.934;2023-05-16T17:41:49;2.90;;;1.80;;